Time;durP1;ratioP1;P1;durP2;ratioP2;P2;SDS_P1;SDS_P2;PMS_P1;PMS_P2;Temp;Humidity;BMP_temperature;BMP_pressure;BME280_temperature;BME280_humidity;BME280_pressure;Samples;Min_cycle;Max_cycle;Signal;HPM_P1;HPM_P2
2024/03/21 00:00:13;;;;;;;3.70;2.30;;;19.50;57.20;;;;;;5027944;28;20398;-55
2024/03/21 00:02:40;;;;;;;3.20;2.70;;;19.50;57.20;;;;;;5020772;28;20115;-54
2024/03/21 00:05:06;;;;;;;2.75;2.40;;;19.50;57.20;;;;;;5021911;28;20872;-54
2024/03/21 00:07:33;;;;;;;2.90;2.60;;;19.50;57.20;;;;;;5023119;28;20038;-54
2024/03/21 00:09:59;;;;;;;2.20;2.10;;;19.50;57.10;;;;;;5022164;28;20036;-57
2024/03/21 00:12:24;;;;;;;3.05;2.33;;;19.50;57.10;;;;;;5022336;28;20394;-55
2024/03/21 00:14:50;;;;;;;2.33;2.13;;;19.50;57.10;;;;;;5023869;28;20025;-56
2024/03/21 00:17:15;;;;;;;2.60;2.30;;;19.50;57.00;;;;;;5022019;28;20030;-53
2024/03/21 00:19:41;;;;;;;2.45;2.20;;;19.50;57.10;;;;;;5023768;28;20177;-52
2024/03/21 00:22:06;;;;;;;3.30;2.30;;;19.50;57.10;;;;;;5022806;28;20453;-55
2024/03/21 00:24:32;;;;;;;2.78;2.28;;;19.40;57.10;;;;;;5019694;28;20117;-57
2024/03/21 00:26:57;;;;;;;2.30;2.10;;;19.40;57.10;;;;;;5021745;28;20037;-57
2024/03/21 00:29:24;;;;;;;2.95;2.53;;;19.40;57.10;;;;;;5022807;28;20037;-55
2024/03/21 00:31:53;;;;;;;2.22;2.03;;;19.40;57.20;;;;;;5020491;28;20045;-56
2024/03/21 00:34:19;;;;;;;2.40;2.20;;;19.40;57.20;;;;;;5029444;28;22756;-55
2024/03/21 00:36:44;;;;;;;2.40;2.10;;;19.40;57.20;;;;;;5019049;28;20034;-56
2024/03/21 00:39:23;;;;;;;3.67;2.78;;;19.40;57.20;;;;;;5018861;28;20156;-55
2024/03/21 00:41:49;;;;;;;3.47;2.15;;;19.40;57.20;;;;;;5022759;28;20091;-56
2024/03/21 00:44:15;;;;;;;2.65;2.42;;;19.40;57.20;;;;;;5020950;28;20076;-56
2024/03/21 00:46:40;;;;;;;2.47;2.03;;;19.40;57.20;;;;;;5023144;28;20036;-55
2024/03/21 00:49:06;;;;;;;3.13;2.42;;;19.40;57.20;;;;;;5024153;28;20030;-52
2024/03/21 00:51:32;;;;;;;2.60;2.40;;;19.40;57.20;;;;;;5029215;28;20203;-52
2024/03/21 00:53:58;;;;;;;3.42;2.45;;;19.40;57.20;;;;;;5019326;28;20487;-52
2024/03/21 00:56:24;;;;;;;2.50;2.30;;;19.40;57.30;;;;;;5024238;28;20037;-55
2024/03/21 00:58:49;;;;;;;2.50;2.30;;;19.40;57.30;;;;;;5017188;28;20852;-55
2024/03/21 01:01:15;;;;;;;2.45;2.25;;;19.40;57.30;;;;;;5023663;28;20457;-57
2024/03/21 01:03:41;;;;;;;2.53;2.15;;;19.40;57.30;;;;;;5016538;28;20033;-55
2024/03/21 01:06:07;;;;;;;2.60;2.40;;;19.40;57.30;;;;;;5019504;28;20119;-55
2024/03/21 01:08:32;;;;;;;2.50;2.20;;;19.40;57.40;;;;;;5020610;28;20478;-57
2024/03/21 01:10:58;;;;;;;2.40;2.20;;;19.40;57.40;;;;;;5021024;28;20064;-52
2024/03/21 01:13:24;;;;;;;2.67;1.88;;;19.40;57.40;;;;;;5012474;28;20037;-54
2024/03/21 01:15:49;;;;;;;2.45;2.25;;;19.30;57.40;;;;;;5016490;28;20034;-55
2024/03/21 01:18:15;;;;;;;2.38;2.17;;;19.30;57.40;;;;;;5022021;28;20041;-53
2024/03/21 01:20:41;;;;;;;2.40;2.08;;;19.30;57.40;;;;;;5019877;28;20026;-52
2024/03/21 01:23:08;;;;;;;2.45;2.17;;;19.30;57.50;;;;;;5020915;28;20121;-54
2024/03/21 01:25:33;;;;;;;2.58;2.38;;;19.30;57.50;;;;;;5019314;28;20056;-55
2024/03/21 01:28:02;;;;;;;2.85;2.25;;;19.20;57.40;;;;;;5019800;28;21919;-56
2024/03/21 01:30:30;;;;;;;2.20;1.85;;;19.20;57.40;;;;;;5023931;28;20055;-54
2024/03/21 01:32:56;;;;;;;2.10;1.90;;;19.30;57.40;;;;;;5017913;28;20113;-56
2024/03/21 01:35:21;;;;;;;1.65;1.55;;;19.30;57.40;;;;;;5019749;28;20117;-56
2024/03/21 01:37:47;;;;;;;2.15;1.85;;;19.20;57.40;;;;;;5017649;28;20026;-51
2024/03/21 01:40:12;;;;;;;2.95;2.30;;;19.20;57.30;;;;;;5018739;28;20033;-53
2024/03/21 01:42:39;;;;;;;2.17;1.80;;;19.20;57.30;;;;;;5020901;28;20028;-55
2024/03/21 01:45:06;;;;;;;1.77;1.60;;;19.20;57.30;;;;;;5018845;28;20101;-56
2024/03/21 01:47:32;;;;;;;2.10;1.90;;;19.20;57.40;;;;;;5023156;28;20035;-54
2024/03/21 01:49:58;;;;;;;2.45;2.25;;;19.20;57.50;;;;;;5022206;28;20037;-58
2024/03/21 01:52:24;;;;;;;2.05;1.85;;;19.20;57.50;;;;;;5023812;28;20036;-55
2024/03/21 01:54:50;;;;;;;1.90;1.80;;;19.20;57.50;;;;;;5017251;28;20053;-51
2024/03/21 01:57:16;;;;;;;1.90;1.70;;;19.20;57.50;;;;;;5020145;28;20030;-52
2024/03/21 01:59:42;;;;;;;2.13;1.67;;;19.20;57.60;;;;;;5013498;28;20029;-58
2024/03/21 02:02:08;;;;;;;2.22;2.03;;;19.20;57.50;;;;;;5019100;28;20513;-52
2024/03/21 02:04:33;;;;;;;2.35;2.08;;;19.20;57.50;;;;;;5018831;28;20037;-52
2024/03/21 02:06:59;;;;;;;2.80;1.70;;;19.20;57.40;;;;;;5020108;28;20976;-55
2024/03/21 02:09:27;;;;;;;1.63;1.38;;;19.20;57.40;;;;;;5020090;28;20095;-55
2024/03/21 02:11:53;;;;;;;2.03;1.63;;;19.20;57.40;;;;;;5021928;28;20026;-55
2024/03/21 02:14:19;;;;;;;2.33;2.13;;;19.20;57.40;;;;;;5018949;28;20029;-56
2024/03/21 02:16:46;;;;;;;1.67;1.58;;;19.20;57.20;;;;;;5016464;28;20033;-56
2024/03/21 02:19:11;;;;;;;2.10;1.80;;;19.30;57.40;;;;;;5021797;28;20034;-55
2024/03/21 02:24:21;;;;;;;2.83;1.90;;;19.20;57.20;;;;;;5019058;28;20036;-56
2024/03/21 02:26:47;;;;;;;2.05;1.70;;;19.20;57.30;;;;;;5019439;28;20018;-58
2024/03/21 02:29:12;;;;;;;1.90;1.60;;;19.20;57.30;;;;;;5019361;28;20029;-56
2024/03/21 02:31:38;;;;;;;1.83;1.70;;;19.30;57.30;;;;;;5018925;28;20044;-52
2024/03/21 02:34:03;;;;;;;2.13;1.92;;;19.30;57.30;;;;;;5017811;28;20033;-57
2024/03/21 02:36:29;;;;;;;2.35;1.85;;;19.30;57.30;;;;;;5015663;28;20036;-52
2024/03/21 02:38:55;;;;;;;1.63;1.52;;;19.30;57.20;;;;;;5016055;28;22190;-50
2024/03/21 02:41:20;;;;;;;2.33;1.65;;;19.30;57.20;;;;;;5018324;28;21261;-51
2024/03/21 02:43:46;;;;;;;1.98;1.70;;;19.30;57.20;;;;;;5019240;28;20041;-57
2024/03/21 02:46:11;;;;;;;1.95;1.80;;;19.30;57.20;;;;;;5017778;28;20092;-58
2024/03/21 02:48:37;;;;;;;1.65;1.50;;;19.30;57.20;;;;;;5024375;28;20418;-54
2024/03/21 02:51:02;;;;;;;2.25;1.92;;;19.30;57.20;;;;;;5021445;28;20029;-52
2024/03/21 02:53:28;;;;;;;1.75;1.45;;;19.30;57.10;;;;;;5021065;28;20034;-55
2024/03/21 02:55:53;;;;;;;1.88;1.60;;;19.30;57.20;;;;;;5024000;28;20025;-58
2024/03/21 02:58:19;;;;;;;1.65;1.52;;;19.30;57.10;;;;;;5026728;28;20026;-54
2024/03/21 03:00:44;;;;;;;2.17;1.90;;;19.30;57.20;;;;;;5022097;28;20030;-52
2024/03/21 03:03:10;;;;;;;1.58;1.48;;;19.30;57.20;;;;;;5025709;28;20108;-53
2024/03/21 03:05:42;;;;;;;2.05;1.70;;;19.30;57.20;;;;;;5017953;28;20426;-59
2024/03/21 03:08:08;;;;;;;2.75;1.50;;;19.30;57.20;;;;;;5018694;28;20038;-57
2024/03/21 03:10:36;;;;;;;2.13;1.85;;;19.20;57.20;;;;;;5021913;28;20040;-52
2024/03/21 03:13:01;;;;;;;2.22;2.00;;;19.20;57.30;;;;;;5016452;28;20119;-54
2024/03/21 03:15:27;;;;;;;2.25;2.05;;;19.30;57.30;;;;;;5021726;28;20511;-59
2024/03/21 03:17:52;;;;;;;1.65;1.55;;;19.20;57.30;;;;;;5019652;28;20056;-58
2024/03/21 03:20:17;;;;;;;1.58;1.40;;;19.20;57.30;;;;;;5017403;28;20025;-53
2024/03/21 03:22:43;;;;;;;2.03;1.40;;;19.20;57.30;;;;;;5030099;28;21594;-53
2024/03/21 03:25:08;;;;;;;1.83;1.48;;;19.20;57.30;;;;;;5026290;28;20084;-54
2024/03/21 03:27:34;;;;;;;2.00;1.80;;;19.20;57.30;;;;;;5027652;28;20022;-55
2024/03/21 03:29:59;;;;;;;1.45;1.35;;;19.20;57.30;;;;;;5025526;28;20045;-53
2024/03/21 03:32:25;;;;;;;1.70;1.50;;;19.20;57.40;;;;;;5022426;28;20033;-53
2024/03/21 03:37:34;;;;;;;1.73;1.63;;;19.20;57.40;;;;;;5013530;28;20629;-58
2024/03/21 03:40:00;;;;;;;3.58;1.88;;;19.20;57.40;;;;;;5023535;28;20053;-52
2024/03/21 03:42:25;;;;;;;1.92;1.27;;;19.20;57.50;;;;;;5023972;28;20391;-55
2024/03/21 03:44:51;;;;;;;2.15;1.20;;;19.10;57.50;;;;;;5021697;28;20041;-55
2024/03/21 03:47:16;;;;;;;1.50;1.40;;;19.10;57.40;;;;;;5027000;28;20036;-52
2024/03/21 03:49:42;;;;;;;2.78;2.15;;;19.10;57.40;;;;;;5021798;28;20033;-53
2024/03/21 03:52:07;;;;;;;2.58;2.00;;;19.20;57.50;;;;;;5022782;28;20055;-56
2024/03/21 03:54:33;;;;;;;1.90;1.52;;;19.10;57.50;;;;;;4996417;28;20122;-52
2024/03/21 03:56:58;;;;;;;1.63;1.52;;;19.10;57.50;;;;;;5003176;28;20041;-53
2024/03/21 03:59:24;;;;;;;2.85;1.50;;;19.10;57.40;;;;;;5033169;28;20025;-53
2024/03/21 04:01:49;;;;;;;2.05;1.52;;;19.10;57.40;;;;;;5018388;28;20034;-55
2024/03/21 04:04:15;;;;;;;2.00;1.58;;;19.10;57.40;;;;;;5015525;28;20121;-56
2024/03/21 04:06:40;;;;;;;2.08;1.67;;;19.10;57.40;;;;;;5015126;28;20044;-54
2024/03/21 04:09:06;;;;;;;1.50;1.40;;;19.10;57.40;;;;;;5020247;28;20040;-55
2024/03/21 04:11:32;;;;;;;1.77;1.67;;;19.10;57.40;;;;;;5019430;28;20034;-54
2024/03/21 04:13:58;;;;;;;3.55;1.77;;;19.10;57.40;;;;;;5021304;28;20390;-58
2024/03/21 04:16:24;;;;;;;3.20;1.30;;;19.10;57.40;;;;;;5017437;28;20033;-53
2024/03/21 04:18:49;;;;;;;2.60;1.27;;;19.10;57.40;;;;;;5020729;28;20903;-57
2024/03/21 04:21:15;;;;;;;1.92;1.73;;;19.10;57.40;;;;;;5024105;28;20065;-55
2024/03/21 04:23:40;;;;;;;1.80;1.50;;;19.10;57.40;;;;;;5021458;28;20064;-52
2024/03/21 04:26:06;;;;;;;1.77;1.40;;;19.10;57.40;;;;;;5021525;28;20152;-53
2024/03/21 04:28:32;;;;;;;1.70;1.60;;;19.10;57.40;;;;;;5020528;28;20380;-55
2024/03/21 04:30:57;;;;;;;1.73;1.35;;;19.10;57.40;;;;;;5023062;28;20030;-50
2024/03/21 04:33:23;;;;;;;2.53;1.75;;;19.10;57.40;;;;;;5024777;28;20026;-54
2024/03/21 04:35:49;;;;;;;1.65;1.30;;;19.10;57.50;;;;;;5022428;28;20036;-56
2024/03/21 04:38:16;;;;;;;1.92;1.50;;;19.10;57.50;;;;;;5021075;28;20033;-52
2024/03/21 04:40:41;;;;;;;1.80;1.55;;;19.00;57.50;;;;;;5021037;28;20116;-52
2024/03/21 04:43:07;;;;;;;1.95;1.60;;;19.10;57.50;;;;;;5019452;28;20738;-56
2024/03/21 04:45:33;;;;;;;1.20;1.15;;;19.10;57.50;;;;;;5021222;28;20033;-56
2024/03/21 04:47:58;;;;;;;1.60;1.42;;;19.10;57.50;;;;;;5022099;28;20044;-55
2024/03/21 04:50:24;;;;;;;2.35;1.95;;;19.10;57.60;;;;;;5020847;28;20108;-53
2024/03/21 04:52:50;;;;;;;1.60;1.30;;;19.10;57.50;;;;;;5020305;28;20096;-50
2024/03/21 04:55:15;;;;;;;1.42;1.20;;;19.10;57.60;;;;;;5016258;28;20112;-52
2024/03/21 04:57:41;;;;;;;1.52;1.42;;;19.10;57.50;;;;;;5013471;28;20068;-54
2024/03/21 05:00:11;;;;;;;1.88;1.30;;;19.10;57.50;;;;;;5022262;28;20033;-57
2024/03/21 05:02:37;;;;;;;1.80;1.70;;;19.10;57.40;;;;;;5021363;28;20042;-58
2024/03/21 05:05:04;;;;;;;2.92;1.50;;;19.10;57.40;;;;;;5021813;28;20064;-59
2024/03/21 05:07:30;;;;;;;1.63;1.52;;;19.10;57.40;;;;;;5017817;28;20064;-52
2024/03/21 05:09:56;;;;;;;1.58;1.40;;;19.10;57.40;;;;;;5019128;28;20698;-52
2024/03/21 05:12:21;;;;;;;1.98;1.42;;;19.10;57.40;;;;;;5021673;28;20033;-61
2024/03/21 05:14:47;;;;;;;1.60;1.38;;;19.10;57.40;;;;;;5024193;28;20112;-57
2024/03/21 05:17:14;;;;;;;1.40;1.30;;;19.10;57.40;;;;;;5023033;28;20037;-50
2024/03/21 05:19:40;;;;;;;1.60;1.40;;;19.10;57.40;;;;;;5019974;28;20356;-59
2024/03/21 05:22:05;;;;;;;2.97;1.50;;;19.10;57.40;;;;;;5018550;28;20037;-54
2024/03/21 05:24:31;;;;;;;3.40;1.25;;;19.10;57.40;;;;;;5020694;28;20125;-55
2024/03/21 05:26:56;;;;;;;2.45;1.60;;;19.10;57.30;;;;;;5017279;28;20478;-51
2024/03/21 05:29:22;;;;;;;2.95;1.52;;;19.10;57.30;;;;;;5019222;28;20037;-51
2024/03/21 05:31:47;;;;;;;2.65;1.45;;;19.10;57.30;;;;;;5020989;28;20116;-55
2024/03/21 05:34:13;;;;;;;1.40;1.30;;;19.10;57.40;;;;;;5019041;28;20025;-53
2024/03/21 05:36:38;;;;;;;2.17;1.38;;;19.10;57.40;;;;;;5016764;28;20520;-54
2024/03/21 05:39:05;;;;;;;1.80;1.27;;;19.10;57.40;;;;;;5020040;28;20187;-55
2024/03/21 05:41:30;;;;;;;3.40;1.30;;;19.10;57.40;;;;;;5021735;28;20490;-54
2024/03/21 05:43:56;;;;;;;2.10;1.17;;;19.10;57.40;;;;;;5018619;28;20038;-58
2024/03/21 05:46:26;;;;;;;2.30;1.60;;;19.10;57.40;;;;;;5021338;28;20041;-56
2024/03/21 05:48:55;;;;;;;1.58;1.33;;;19.10;57.40;;;;;;5018492;28;20608;-56
2024/03/21 05:51:21;;;;;;;1.35;1.25;;;19.10;57.40;;;;;;5021694;28;20033;-52
2024/03/21 05:53:47;;;;;;;1.55;1.45;;;19.10;57.40;;;;;;5019828;28;20826;-54
2024/03/21 05:56:14;;;;;;;1.70;1.33;;;19.10;57.30;;;;;;5010537;28;20109;-56
2024/03/21 05:58:40;;;;;;;1.35;1.20;;;19.10;57.40;;;;;;5018065;28;20495;-56
2024/03/21 06:03:40;;;;;;;1.65;1.30;;;19.10;57.30;;;;;;5015873;28;20033;-52
2024/03/21 06:06:06;;;;;;;1.83;1.48;;;19.10;57.20;;;;;;5019083;28;20087;-57
2024/03/21 06:08:31;;;;;;;1.55;1.40;;;19.10;57.20;;;;;;5017889;28;20486;-54
2024/03/21 06:10:57;;;;;;;2.20;1.40;;;19.20;57.20;;;;;;5019274;28;20049;-56
2024/03/21 06:13:22;;;;;;;1.60;1.30;;;19.20;57.10;;;;;;5015672;28;20017;-57
2024/03/21 06:15:48;;;;;;;3.08;1.30;;;19.20;57.10;;;;;;5016013;28;20076;-53
2024/03/21 06:18:14;;;;;;;2.38;1.70;;;19.20;57.10;;;;;;5018313;28;20037;-55
2024/03/21 06:20:41;;;;;;;3.42;1.33;;;19.20;57.20;;;;;;5019381;28;20061;-55
2024/03/21 06:23:07;;;;;;;2.08;1.52;;;19.30;57.90;;;;;;5012104;28;20037;-54
2024/03/21 06:25:33;;;;;;;1.95;1.40;;;19.30;57.20;;;;;;5016333;28;20091;-59
2024/03/21 06:27:59;;;;;;;3.80;1.67;;;19.30;57.20;;;;;;5016281;28;20038;-52
2024/03/21 06:30:24;;;;;;;2.55;1.50;;;19.30;57.20;;;;;;5010787;28;20703;-56
2024/03/21 06:32:49;;;;;;;1.77;1.55;;;19.30;57.20;;;;;;5016432;28;20049;-55
2024/03/21 06:35:15;;;;;;;4.20;1.38;;;19.30;57.30;;;;;;5015948;28;20410;-53
2024/03/21 06:37:41;;;;;;;8.43;2.28;;;19.30;57.40;;;;;;5016904;28;20026;-55
2024/03/21 06:40:08;;;;;;;3.15;1.77;;;19.30;57.40;;;;;;5018843;28;20047;-52
2024/03/21 06:42:34;;;;;;;1.88;1.40;;;19.30;57.40;;;;;;5018982;28;20030;-52
2024/03/21 06:45:01;;;;;;;2.67;1.50;;;19.20;57.30;;;;;;5018217;28;20041;-56
2024/03/21 06:47:26;;;;;;;2.92;1.50;;;19.20;57.40;;;;;;5018654;28;20371;-55
2024/03/21 06:49:56;;;;;;;2.53;1.20;;;19.20;57.40;;;;;;5018176;28;20037;-56
2024/03/21 06:52:25;;;;;;;2.65;1.45;;;19.20;57.50;;;;;;5019717;28;20118;-57
2024/03/21 06:54:50;;;;;;;1.20;1.10;;;19.20;57.60;;;;;;5018424;28;20033;-55
2024/03/21 06:57:16;;;;;;;1.60;1.33;;;19.20;57.60;;;;;;5019722;28;20656;-53
2024/03/21 06:59:42;;;;;;;5.75;2.28;;;19.20;57.60;;;;;;5018473;28;20048;-54
2024/03/21 07:02:08;;;;;;;1.80;1.40;;;19.20;57.60;;;;;;5019407;28;20617;-58
2024/03/21 07:04:34;;;;;;;4.65;1.58;;;19.10;57.60;;;;;;5033800;28;20044;-59
2024/03/21 07:06:59;;;;;;;2.78;1.67;;;19.10;57.60;;;;;;5019652;28;20037;-52
2024/03/21 07:09:25;;;;;;;6.68;2.28;;;19.10;57.60;;;;;;5019727;28;20080;-52
2024/03/21 07:11:51;;;;;;;2.03;1.83;;;19.10;57.60;;;;;;5017975;28;20479;-57
2024/03/21 07:14:16;;;;;;;2.42;1.60;;;19.10;57.60;;;;;;5017879;28;20021;-54
2024/03/21 07:16:43;;;;;;;4.57;2.15;;;19.10;57.60;;;;;;5019129;28;20028;-55
2024/03/21 07:19:08;;;;;;;3.28;1.88;;;19.10;57.50;;;;;;5019295;28;20022;-53
2024/03/21 07:21:34;;;;;;;2.78;1.95;;;19.10;57.50;;;;;;5020638;28;20095;-58
2024/03/21 07:23:59;;;;;;;3.85;1.98;;;19.10;57.50;;;;;;5020033;28;20030;-55
2024/03/21 07:26:24;;;;;;;4.15;1.95;;;19.10;57.50;;;;;;5014158;28;20038;-56
2024/03/21 07:28:50;;;;;;;5.47;1.77;;;19.10;57.50;;;;;;5016234;28;20379;-54
2024/03/21 07:31:16;;;;;;;7.88;1.95;;;19.10;57.50;;;;;;5015548;28;20029;-52
2024/03/21 07:33:41;;;;;;;3.60;2.10;;;19.10;57.50;;;;;;5016750;28;20049;-54
2024/03/21 07:36:07;;;;;;;10.55;2.85;;;19.10;57.50;;;;;;5022015;28;20377;-55
2024/03/21 07:38:33;;;;;;;4.93;2.83;;;19.10;57.00;;;;;;5023523;28;20041;-52
2024/03/21 07:41:00;;;;;;;4.60;2.38;;;19.10;57.60;;;;;;5020911;28;20041;-60
2024/03/21 07:43:26;;;;;;;4.38;2.60;;;19.20;57.70;;;;;;5025194;28;20033;-57
2024/03/21 07:45:52;;;;;;;6.78;2.60;;;19.10;57.80;;;;;;5017550;28;20545;-52
2024/03/21 07:48:18;;;;;;;6.88;3.30;;;19.10;57.80;;;;;;5015632;28;20105;-55
2024/03/21 07:50:44;;;;;;;15.20;8.02;;;19.10;57.90;;;;;;5018625;28;20037;-53
2024/03/21 07:53:09;;;;;;;21.63;9.57;;;19.10;58.60;;;;;;5018276;28;20038;-57
2024/03/21 07:55:35;;;;;;;21.20;10.35;;;19.20;58.90;;;;;;5020053;28;20557;-57
2024/03/21 07:58:01;;;;;;;23.42;10.07;;;19.20;58.80;;;;;;5020061;28;20734;-56
2024/03/21 08:00:30;;;;;;;16.42;8.68;;;19.20;59.00;;;;;;5014212;28;20054;-56
2024/03/21 08:02:55;;;;;;;21.35;9.48;;;19.20;58.90;;;;;;5011333;28;20045;-53
2024/03/21 08:05:21;;;;;;;14.68;8.27;;;19.20;59.00;;;;;;5018253;28;20040;-55
2024/03/21 08:07:46;;;;;;;24.42;9.77;;;19.20;59.10;;;;;;5017159;28;20095;-54
2024/03/21 08:10:13;;;;;;;18.20;8.48;;;19.20;58.90;;;;;;5020569;28;20087;-54
2024/03/21 08:12:38;;;;;;;13.25;7.88;;;19.20;58.90;;;;;;5019732;28;20087;-55
2024/03/21 08:15:04;;;;;;;16.90;7.72;;;19.20;58.80;;;;;;5017938;28;20112;-52
2024/03/21 08:17:30;;;;;;;14.82;7.38;;;19.20;58.70;;;;;;5017707;28;20161;-51
2024/03/21 08:19:56;;;;;;;17.60;8.43;;;19.20;58.60;;;;;;5019700;28;20120;-53
2024/03/21 08:22:22;;;;;;;15.43;7.40;;;19.30;58.60;;;;;;5017235;28;20038;-54
2024/03/21 08:24:48;;;;;;;17.48;8.38;;;19.20;58.40;;;;;;5014198;28;20025;-55
2024/03/21 08:27:17;;;;;;;16.85;7.50;;;19.20;58.30;;;;;;5011881;28;20070;-58
2024/03/21 08:29:43;;;;;;;17.13;7.65;;;19.30;58.40;;;;;;5013588;28;20021;-57
2024/03/21 08:32:11;;;;;;;13.93;7.05;;;19.30;58.30;;;;;;5016050;28;20070;-58
2024/03/21 08:34:36;;;;;;;13.07;5.93;;;19.30;58.30;;;;;;5017134;28;20706;-54
2024/03/21 08:37:02;;;;;;;13.18;6.32;;;19.30;58.20;;;;;;5019346;28;20121;-54
2024/03/21 08:39:28;;;;;;;13.55;5.93;;;19.30;58.20;;;;;;5017705;28;22082;-55
2024/03/21 08:41:53;;;;;;;11.82;6.20;;;19.30;58.20;;;;;;5009568;28;20507;-55
2024/03/21 08:44:19;;;;;;;10.45;6.38;;;19.30;58.10;;;;;;5020245;28;21649;-56
2024/03/21 08:46:44;;;;;;;14.40;6.10;;;19.30;58.00;;;;;;5014585;28;20760;-54
2024/03/21 08:49:11;;;;;;;8.57;4.93;;;19.30;58.00;;;;;;5020076;28;20040;-54
2024/03/21 08:51:37;;;;;;;11.95;6.50;;;19.30;57.90;;;;;;5019187;28;20053;-55
2024/03/21 08:54:03;;;;;;;10.68;5.38;;;19.30;57.80;;;;;;5019812;28;20064;-56
2024/03/21 08:56:31;;;;;;;8.98;4.68;;;19.30;57.70;;;;;;5019934;28;20064;-52
2024/03/21 08:58:56;;;;;;;8.23;5.18;;;19.30;57.60;;;;;;5020721;28;20702;-55
2024/03/21 09:01:22;;;;;;;7.85;5.15;;;19.30;57.60;;;;;;5017774;28;20041;-57
2024/03/21 09:03:47;;;;;;;10.93;5.47;;;19.30;57.60;;;;;;5018873;28;20056;-51
2024/03/21 09:06:13;;;;;;;10.65;5.07;;;19.30;57.70;;;;;;5018060;28;20048;-53
2024/03/21 09:08:38;;;;;;;7.55;4.28;;;19.30;57.70;;;;;;5018465;28;20479;-59
2024/03/21 09:11:04;;;;;;;9.70;4.57;;;19.30;57.70;;;;;;5018239;28;20022;-55
2024/03/21 09:13:30;;;;;;;7.68;4.18;;;19.30;57.70;;;;;;5017026;28;20422;-54
2024/03/21 09:15:56;;;;;;;7.82;4.20;;;19.30;57.70;;;;;;5018606;28;20049;-57
2024/03/21 09:18:22;;;;;;;7.22;4.30;;;19.30;57.80;;;;;;5017063;28;20053;-55
2024/03/21 09:20:47;;;;;;;6.35;3.67;;;19.30;57.80;;;;;;5021426;28;20026;-52
2024/03/21 09:23:13;;;;;;;7.07;4.22;;;19.30;57.70;;;;;;5017967;28;20033;-54
2024/03/21 09:25:39;;;;;;;8.23;4.38;;;19.30;57.70;;;;;;5017939;28;20038;-57
2024/03/21 09:28:05;;;;;;;7.15;4.07;;;19.30;57.70;;;;;;5015995;28;20029;-56
2024/03/21 09:30:31;;;;;;;7.03;3.97;;;19.30;57.70;;;;;;5016085;28;20526;-55
2024/03/21 09:32:57;;;;;;;5.00;3.60;;;19.30;57.60;;;;;;5022732;28;20048;-55
2024/03/21 09:35:23;;;;;;;7.47;3.38;;;19.30;57.60;;;;;;5018723;28;20539;-56
2024/03/21 09:37:49;;;;;;;5.85;3.70;;;19.30;57.60;;;;;;5015986;28;20423;-55
2024/03/21 09:40:17;;;;;;;5.57;3.60;;;19.30;57.60;;;;;;5019337;28;20038;-52
2024/03/21 09:42:43;;;;;;;7.15;4.15;;;19.30;57.60;;;;;;5013349;28;20037;-58
2024/03/21 09:45:13;;;;;;;7.10;3.55;;;19.30;57.70;;;;;;5017568;28;20033;-54
2024/03/21 09:47:40;;;;;;;5.97;3.33;;;19.30;57.70;;;;;;5006328;28;20380;-56
2024/03/21 09:50:10;;;;;;;6.93;3.58;;;19.20;57.60;;;;;;5019489;28;20037;-54
2024/03/21 09:52:37;;;;;;;3.55;3.22;;;19.20;57.60;;;;;;5018092;28;20033;-53
2024/03/21 09:55:10;;;;;;;5.25;3.80;;;19.20;57.70;;;;;;5016414;28;20111;-52
2024/03/21 09:57:36;;;;;;;5.72;3.75;;;19.20;57.70;;;;;;5016269;28;20036;-56
2024/03/21 10:00:02;;;;;;;5.97;3.15;;;19.20;57.70;;;;;;5018624;28;20037;-57
2024/03/21 10:02:28;;;;;;;6.57;3.30;;;19.10;58.00;;;;;;5018457;28;20395;-52
2024/03/21 10:04:55;;;;;;;6.97;3.65;;;19.20;57.80;;;;;;5018071;28;20040;-55
2024/03/21 10:07:22;;;;;;;6.50;3.42;;;19.20;57.80;;;;;;5019609;28;20032;-52
2024/03/21 10:09:55;;;;;;;4.75;3.10;;;19.20;57.90;;;;;;5016868;28;20395;-56
2024/03/21 10:12:21;;;;;;;5.60;2.92;;;19.10;58.50;;;;;;5016550;28;20060;-55
2024/03/21 10:14:47;;;;;;;6.72;2.70;;;19.10;57.80;;;;;;5015978;28;20104;-51
2024/03/21 10:17:13;;;;;;;4.63;3.15;;;19.10;57.80;;;;;;5014497;28;20149;-56
2024/03/21 10:19:38;;;;;;;5.18;2.92;;;19.10;57.90;;;;;;5020162;28;20029;-53
2024/03/21 10:22:04;;;;;;;4.07;3.10;;;19.20;58.00;;;;;;5018153;28;20490;-53
2024/03/21 10:24:30;;;;;;;5.60;3.13;;;19.10;57.90;;;;;;5013378;28;20029;-53
2024/03/21 10:26:56;;;;;;;5.88;3.05;;;19.10;58.40;;;;;;5017926;28;20397;-57
2024/03/21 10:29:23;;;;;;;5.05;2.88;;;19.20;57.80;;;;;;5016122;28;20029;-54
2024/03/21 10:31:50;;;;;;;4.40;2.67;;;19.20;57.80;;;;;;5019235;28;20499;-53
2024/03/21 10:34:17;;;;;;;3.30;2.85;;;19.20;57.80;;;;;;5018325;28;20121;-53
2024/03/21 10:36:43;;;;;;;5.43;2.72;;;19.20;57.70;;;;;;5032837;28;20034;-53
2024/03/21 10:39:10;;;;;;;4.32;3.00;;;19.20;57.70;;;;;;5051403;22;20044;-54
2024/03/21 10:41:39;;;;;;;4.13;3.00;;;19.20;57.70;;;;;;5056394;28;20033;-57
2024/03/21 10:44:10;;;;;;;3.50;2.38;;;19.20;57.70;;;;;;5052819;28;20408;-59
2024/03/21 10:46:37;;;;;;;3.33;2.55;;;19.20;57.80;;;;;;5056398;28;20039;-57
2024/03/21 10:49:03;;;;;;;3.47;2.38;;;19.20;57.80;;;;;;5054713;28;20052;-56
2024/03/21 10:51:29;;;;;;;3.03;2.30;;;19.20;57.70;;;;;;5057752;28;20048;-55
2024/03/21 10:54:03;;;;;;;4.30;2.67;;;19.20;57.70;;;;;;5055660;28;20044;-57
2024/03/21 10:56:39;;;;;;;3.67;2.70;;;19.20;57.60;;;;;;5055974;28;20028;-57
2024/03/21 10:59:05;;;;;;;6.72;2.30;;;19.20;57.70;;;;;;5057835;28;20036;-55
2024/03/21 11:01:39;;;;;;;2.75;2.22;;;19.20;57.70;;;;;;5057174;28;20094;-57
2024/03/21 11:04:06;;;;;;;3.35;2.42;;;19.20;58.30;;;;;;5044035;28;20104;-55
2024/03/21 11:06:42;;;;;;;5.03;2.50;;;19.30;57.60;;;;;;5057150;28;20713;-54
2024/03/21 11:09:12;;;;;;;5.75;2.63;;;19.30;57.60;;;;;;5046919;28;20033;-55
2024/03/21 11:11:37;;;;;;;3.88;2.50;;;19.30;57.60;;;;;;5057639;28;20029;-56
2024/03/21 11:14:06;;;;;;;3.45;2.88;;;19.30;57.60;;;;;;5059065;28;20397;-55
2024/03/21 11:16:32;;;;;;;3.78;2.63;;;19.30;57.60;;;;;;5046727;28;25822;-54
2024/03/21 11:18:58;;;;;;;3.03;2.38;;;19.30;57.60;;;;;;5056254;28;20032;-54
2024/03/21 11:21:24;;;;;;;3.88;2.53;;;19.30;57.50;;;;;;5057136;28;20114;-56
2024/03/21 11:23:50;;;;;;;2.72;2.33;;;19.30;57.50;;;;;;5058741;28;20051;-54
2024/03/21 11:26:18;;;;;;;4.53;2.13;;;19.30;57.50;;;;;;5060570;28;20046;-55
2024/03/21 11:28:50;;;;;;;3.35;2.35;;;19.30;57.50;;;;;;5060879;28;20039;-55
2024/03/21 11:31:28;;;;;;;2.65;2.28;;;19.30;57.50;;;;;;5049639;28;20024;-55
2024/03/21 11:33:53;;;;;;;4.15;2.33;;;19.30;57.60;;;;;;5057886;28;20667;-55
2024/03/21 11:36:20;;;;;;;3.03;2.45;;;19.30;57.60;;;;;;5060870;28;20024;-54
2024/03/21 11:38:47;;;;;;;3.92;2.33;;;19.30;57.70;;;;;;5056677;28;20092;-55
2024/03/21 11:41:25;;;;;;;2.65;2.15;;;19.20;57.60;;;;;;5057619;28;20070;-56
2024/03/21 11:43:55;;;;;;;3.00;2.42;;;19.20;57.70;;;;;;5059144;28;20554;-56
2024/03/21 11:46:23;;;;;;;4.50;2.28;;;19.20;57.70;;;;;;5054322;28;20037;-56
2024/03/21 11:49:12;;;;;;;2.05;1.77;;;19.20;57.70;;;;;;5052536;28;20500;-54
2024/03/21 11:51:38;;;;;;;2.15;1.88;;;19.20;57.70;;;;;;5058157;28;20037;-54
2024/03/21 11:54:07;;;;;;;3.13;2.25;;;19.30;57.70;;;;;;5055759;28;20032;-55
2024/03/21 11:56:34;;;;;;;8.13;2.20;;;19.20;57.70;;;;;;5060166;28;20032;-54
2024/03/21 11:59:00;;;;;;;2.60;2.33;;;19.20;57.60;;;;;;5058529;28;20428;-54
2024/03/21 12:01:26;;;;;;;3.05;2.50;;;19.20;57.60;;;;;;5060200;28;20384;-54
2024/03/21 12:03:51;;;;;;;4.00;2.10;;;19.20;57.70;;;;;;5054363;28;20021;-54
2024/03/21 12:06:17;;;;;;;3.22;2.33;;;19.30;57.70;;;;;;5060803;28;20035;-54
2024/03/21 12:08:43;;;;;;;2.63;2.17;;;19.20;57.70;;;;;;5060519;28;20021;-54
2024/03/21 12:11:13;;;;;;;2.08;1.80;;;19.30;57.70;;;;;;5059044;28;20025;-55
2024/03/21 12:13:40;;;;;;;2.70;1.98;;;19.20;57.60;;;;;;5058606;28;20108;-56
2024/03/21 12:16:14;;;;;;;2.72;2.00;;;19.20;57.60;;;;;;5060296;28;20064;-54
2024/03/21 12:18:40;;;;;;;1.92;1.70;;;19.30;57.70;;;;;;5059019;28;20078;-54
2024/03/21 12:21:07;;;;;;;2.70;2.15;;;19.30;57.60;;;;;;5058596;28;20021;-54
2024/03/21 12:23:32;;;;;;;2.28;2.08;;;19.30;57.70;;;;;;5034377;28;20056;-55
2024/03/21 12:25:58;;;;;;;2.40;1.70;;;19.20;57.60;;;;;;5005279;28;20441;-55
2024/03/21 12:28:27;;;;;;;2.45;2.25;;;19.30;58.30;;;;;;5056326;28;20035;-55
2024/03/21 12:30:54;;;;;;;2.45;2.10;;;19.30;57.70;;;;;;5056413;28;20036;-57
2024/03/21 12:33:19;;;;;;;3.47;2.40;;;19.30;57.70;;;;;;5058522;28;20028;-56
2024/03/21 12:35:45;;;;;;;2.97;2.08;;;19.30;57.70;;;;;;5055892;28;20047;-55
2024/03/21 12:38:10;;;;;;;2.80;2.00;;;19.30;57.70;;;;;;5056365;28;20020;-55
2024/03/21 12:40:35;;;;;;;1.90;1.67;;;19.30;57.60;;;;;;5054232;28;20052;-56
2024/03/21 12:43:04;;;;;;;2.47;1.95;;;19.30;57.60;;;;;;5055883;28;20955;-55
2024/03/21 12:45:30;;;;;;;3.13;2.08;;;19.30;57.60;;;;;;5056033;28;20485;-55
2024/03/21 12:47:55;;;;;;;2.13;1.92;;;19.30;57.60;;;;;;5057735;28;20082;-56